sensor_id;sensor_type;location;lat;lon;timestamp;P1;durP1;ratioP1;P2;durP2;ratioP2
59970;SDS011;45825;45.434;9.116;2023-06-10T00:00:39;9.95;;;5.78;;
59970;SDS011;45825;45.434;9.116;2023-06-10T00:03:09;10.18;;;4.90;;
59970;SDS011;45825;45.434;9.116;2023-06-10T00:05:35;9.48;;;5.47;;
59970;SDS011;45825;45.434;9.116;2023-06-10T00:08:01;9.52;;;4.93;;
59970;SDS011;45825;45.434;9.116;2023-06-10T00:10:32;9.80;;;5.30;;
59970;SDS011;45825;45.434;9.116;2023-06-10T00:13:01;9.35;;;5.45;;
59970;SDS011;45825;45.434;9.116;2023-06-10T00:15:28;9.80;;;5.15;;
59970;SDS011;45825;45.434;9.116;2023-06-10T00:17:54;9.63;;;4.90;;
59970;SDS011;45825;45.434;9.116;2023-06-10T00:20:20;9.90;;;5.43;;
59970;SDS011;45825;45.434;9.116;2023-06-10T00:22:48;9.02;;;5.47;;
59970;SDS011;45825;45.434;9.116;2023-06-10T00:25:14;10.88;;;5.30;;
59970;SDS011;45825;45.434;9.116;2023-06-10T00:27:39;10.35;;;5.35;;
59970;SDS011;45825;45.434;9.116;2023-06-10T00:30:05;10.75;;;6.32;;
59970;SDS011;45825;45.434;9.116;2023-06-10T00:32:35;11.07;;;6.45;;
59970;SDS011;45825;45.434;9.116;2023-06-10T00:35:01;12.93;;;6.93;;
59970;SDS011;45825;45.434;9.116;2023-06-10T00:37:28;10.27;;;6.18;;
59970;SDS011;45825;45.434;9.116;2023-06-10T00:39:54;15.70;;;6.60;;
59970;SDS011;45825;45.434;9.116;2023-06-10T00:42:19;10.70;;;6.43;;
59970;SDS011;45825;45.434;9.116;2023-06-10T00:44:44;10.90;;;6.43;;
59970;SDS011;45825;45.434;9.116;2023-06-10T00:47:10;10.13;;;5.90;;
59970;SDS011;45825;45.434;9.116;2023-06-10T00:49:35;10.45;;;6.25;;
59970;SDS011;45825;45.434;9.116;2023-06-10T00:52:01;11.45;;;6.00;;
59970;SDS011;45825;45.434;9.116;2023-06-10T00:54:29;12.02;;;5.68;;
59970;SDS011;45825;45.434;9.116;2023-06-10T00:56:55;10.00;;;5.40;;
59970;SDS011;45825;45.434;9.116;2023-06-10T00:59:21;9.77;;;5.60;;
59970;SDS011;45825;45.434;9.116;2023-06-10T01:01:47;7.82;;;5.15;;
59970;SDS011;45825;45.434;9.116;2023-06-10T01:04:12;11.40;;;5.70;;
59970;SDS011;45825;45.434;9.116;2023-06-10T01:12:13;10.23;;;5.15;;
59970;SDS011;45825;45.434;9.116;2023-06-10T01:14:45;8.52;;;4.95;;
59970;SDS011;45825;45.434;9.116;2023-06-10T01:17:11;10.65;;;4.88;;
59970;SDS011;45825;45.434;9.116;2023-06-10T01:19:37;12.65;;;6.05;;
59970;SDS011;45825;45.434;9.116;2023-06-10T01:22:03;12.43;;;6.82;;
59970;SDS011;45825;45.434;9.116;2023-06-10T01:24:29;10.52;;;5.90;;
59970;SDS011;45825;45.434;9.116;2023-06-10T01:26:58;13.38;;;7.00;;
59970;SDS011;45825;45.434;9.116;2023-06-10T01:29:33;12.52;;;7.28;;
59970;SDS011;45825;45.434;9.116;2023-06-10T01:32:10;12.48;;;6.90;;
59970;SDS011;45825;45.434;9.116;2023-06-10T01:34:40;10.45;;;6.22;;
59970;SDS011;45825;45.434;9.116;2023-06-10T01:37:08;9.30;;;5.60;;
59970;SDS011;45825;45.434;9.116;2023-06-10T01:39:37;7.22;;;4.45;;
59970;SDS011;45825;45.434;9.116;2023-06-10T01:42:04;10.48;;;4.88;;
59970;SDS011;45825;45.434;9.116;2023-06-10T01:44:31;10.80;;;5.28;;
59970;SDS011;45825;45.434;9.116;2023-06-10T01:46:57;12.48;;;5.53;;
59970;SDS011;45825;45.434;9.116;2023-06-10T01:49:22;11.32;;;5.03;;
59970;SDS011;45825;45.434;9.116;2023-06-10T01:51:49;12.70;;;5.13;;
59970;SDS011;45825;45.434;9.116;2023-06-10T01:54:14;10.10;;;4.80;;
59970;SDS011;45825;45.434;9.116;2023-06-10T01:56:39;9.63;;;4.47;;
59970;SDS011;45825;45.434;9.116;2023-06-10T01:59:05;9.10;;;4.72;;
59970;SDS011;45825;45.434;9.116;2023-06-10T02:01:30;10.50;;;4.38;;
59970;SDS011;45825;45.434;9.116;2023-06-10T02:03:55;9.63;;;4.25;;
59970;SDS011;45825;45.434;9.116;2023-06-10T02:06:21;10.25;;;4.72;;
59970;SDS011;45825;45.434;9.116;2023-06-10T02:08:46;9.35;;;4.47;;
59970;SDS011;45825;45.434;9.116;2023-06-10T02:11:11;8.80;;;5.03;;
59970;SDS011;45825;45.434;9.116;2023-06-10T02:13:37;9.88;;;4.22;;
59970;SDS011;45825;45.434;9.116;2023-06-10T02:16:03;7.00;;;4.15;;
59970;SDS011;45825;45.434;9.116;2023-06-10T02:18:28;8.40;;;4.30;;
59970;SDS011;45825;45.434;9.116;2023-06-10T02:20:54;9.98;;;4.75;;
59970;SDS011;45825;45.434;9.116;2023-06-10T02:23:19;8.25;;;4.88;;
59970;SDS011;45825;45.434;9.116;2023-06-10T02:25:45;8.07;;;5.00;;
59970;SDS011;45825;45.434;9.116;2023-06-10T02:28:13;10.15;;;5.20;;
59970;SDS011;45825;45.434;9.116;2023-06-10T02:30:39;8.98;;;5.40;;
59970;SDS011;45825;45.434;9.116;2023-06-10T02:33:06;9.27;;;5.13;;
59970;SDS011;45825;45.434;9.116;2023-06-10T02:35:34;8.38;;;4.85;;
59970;SDS011;45825;45.434;9.116;2023-06-10T02:38:00;8.77;;;5.15;;
59970;SDS011;45825;45.434;9.116;2023-06-10T02:40:25;7.97;;;5.18;;
59970;SDS011;45825;45.434;9.116;2023-06-10T02:42:50;8.50;;;5.82;;
59970;SDS011;45825;45.434;9.116;2023-06-10T02:45:16;10.52;;;5.55;;
59970;SDS011;45825;45.434;9.116;2023-06-10T02:47:41;12.63;;;5.40;;
59970;SDS011;45825;45.434;9.116;2023-06-10T02:50:07;10.00;;;5.10;;
59970;SDS011;45825;45.434;9.116;2023-06-10T02:52:32;9.82;;;5.10;;
59970;SDS011;45825;45.434;9.116;2023-06-10T02:54:58;9.73;;;5.25;;
59970;SDS011;45825;45.434;9.116;2023-06-10T02:57:23;11.15;;;5.03;;
59970;SDS011;45825;45.434;9.116;2023-06-10T02:59:49;8.98;;;4.95;;
59970;SDS011;45825;45.434;9.116;2023-06-10T03:02:14;11.52;;;5.05;;
59970;SDS011;45825;45.434;9.116;2023-06-10T03:04:40;8.50;;;5.10;;
59970;SDS011;45825;45.434;9.116;2023-06-10T03:07:06;11.15;;;4.95;;
59970;SDS011;45825;45.434;9.116;2023-06-10T03:09:32;9.77;;;4.90;;
59970;SDS011;45825;45.434;9.116;2023-06-10T03:11:58;8.90;;;4.97;;
59970;SDS011;45825;45.434;9.116;2023-06-10T03:14:23;10.23;;;5.13;;
59970;SDS011;45825;45.434;9.116;2023-06-10T03:16:50;10.85;;;5.35;;
59970;SDS011;45825;45.434;9.116;2023-06-10T03:19:15;9.43;;;5.18;;
59970;SDS011;45825;45.434;9.116;2023-06-10T03:21:43;8.60;;;5.03;;
59970;SDS011;45825;45.434;9.116;2023-06-10T03:24:09;8.82;;;4.55;;
59970;SDS011;45825;45.434;9.116;2023-06-10T03:26:35;7.55;;;5.00;;
59970;SDS011;45825;45.434;9.116;2023-06-10T03:29:01;9.45;;;4.90;;
59970;SDS011;45825;45.434;9.116;2023-06-10T03:31:26;8.93;;;5.47;;
59970;SDS011;45825;45.434;9.116;2023-06-10T03:33:51;11.68;;;7.72;;
59970;SDS011;45825;45.434;9.116;2023-06-10T03:36:16;10.35;;;6.75;;
59970;SDS011;45825;45.434;9.116;2023-06-10T03:38:42;11.00;;;5.53;;
59970;SDS011;45825;45.434;9.116;2023-06-10T03:41:07;9.88;;;5.70;;
59970;SDS011;45825;45.434;9.116;2023-06-10T03:43:32;10.55;;;5.43;;
59970;SDS011;45825;45.434;9.116;2023-06-10T03:45:58;9.48;;;4.93;;
59970;SDS011;45825;45.434;9.116;2023-06-10T03:48:24;10.15;;;5.50;;
59970;SDS011;45825;45.434;9.116;2023-06-10T03:50:49;10.02;;;4.65;;
59970;SDS011;45825;45.434;9.116;2023-06-10T03:53:16;10.13;;;4.90;;
59970;SDS011;45825;45.434;9.116;2023-06-10T03:55:41;9.05;;;4.85;;
59970;SDS011;45825;45.434;9.116;2023-06-10T03:58:07;8.73;;;5.20;;
59970;SDS011;45825;45.434;9.116;2023-06-10T04:00:32;10.00;;;4.90;;
59970;SDS011;45825;45.434;9.116;2023-06-10T04:03:06;8.15;;;4.50;;
59970;SDS011;45825;45.434;9.116;2023-06-10T04:05:34;7.88;;;4.85;;
59970;SDS011;45825;45.434;9.116;2023-06-10T04:07:59;8.07;;;4.80;;
59970;SDS011;45825;45.434;9.116;2023-06-10T04:10:27;9.60;;;4.60;;
59970;SDS011;45825;45.434;9.116;2023-06-10T04:12:52;8.63;;;4.45;;
59970;SDS011;45825;45.434;9.116;2023-06-10T04:15:17;8.10;;;4.50;;
59970;SDS011;45825;45.434;9.116;2023-06-10T04:17:43;10.18;;;4.88;;
59970;SDS011;45825;45.434;9.116;2023-06-10T04:20:08;8.73;;;4.45;;
59970;SDS011;45825;45.434;9.116;2023-06-10T04:22:34;10.23;;;4.97;;
59970;SDS011;45825;45.434;9.116;2023-06-10T04:25:01;8.25;;;4.45;;
59970;SDS011;45825;45.434;9.116;2023-06-10T04:27:27;8.82;;;5.03;;
59970;SDS011;45825;45.434;9.116;2023-06-10T04:29:53;9.05;;;5.05;;
59970;SDS011;45825;45.434;9.116;2023-06-10T04:32:18;9.60;;;5.15;;
59970;SDS011;45825;45.434;9.116;2023-06-10T04:34:43;9.05;;;4.70;;
59970;SDS011;45825;45.434;9.116;2023-06-10T04:37:09;12.20;;;4.82;;
59970;SDS011;45825;45.434;9.116;2023-06-10T04:39:34;10.55;;;5.13;;
59970;SDS011;45825;45.434;9.116;2023-06-10T04:41:59;8.20;;;4.80;;
59970;SDS011;45825;45.434;9.116;2023-06-10T04:44:25;11.38;;;5.20;;
59970;SDS011;45825;45.434;9.116;2023-06-10T04:46:51;9.07;;;5.18;;
59970;SDS011;45825;45.434;9.116;2023-06-10T04:49:16;10.35;;;5.28;;
59970;SDS011;45825;45.434;9.116;2023-06-10T04:51:41;9.02;;;4.97;;
59970;SDS011;45825;45.434;9.116;2023-06-10T04:54:07;9.18;;;5.45;;
59970;SDS011;45825;45.434;9.116;2023-06-10T04:56:32;10.77;;;5.78;;
59970;SDS011;45825;45.434;9.116;2023-06-10T04:58:58;9.70;;;5.15;;
59970;SDS011;45825;45.434;9.116;2023-06-10T05:01:23;10.18;;;5.20;;
59970;SDS011;45825;45.434;9.116;2023-06-10T05:03:48;9.30;;;5.50;;
59970;SDS011;45825;45.434;9.116;2023-06-10T05:06:14;12.65;;;5.60;;
59970;SDS011;45825;45.434;9.116;2023-06-10T05:08:39;11.60;;;5.95;;
59970;SDS011;45825;45.434;9.116;2023-06-10T05:11:04;12.65;;;5.50;;
59970;SDS011;45825;45.434;9.116;2023-06-10T05:13:31;9.25;;;4.95;;
59970;SDS011;45825;45.434;9.116;2023-06-10T05:15:56;8.60;;;4.95;;
59970;SDS011;45825;45.434;9.116;2023-06-10T05:18:22;8.70;;;5.57;;
59970;SDS011;45825;45.434;9.116;2023-06-10T05:20:47;10.63;;;4.72;;
59970;SDS011;45825;45.434;9.116;2023-06-10T05:23:14;11.55;;;5.55;;
59970;SDS011;45825;45.434;9.116;2023-06-10T05:25:40;13.27;;;5.38;;
59970;SDS011;45825;45.434;9.116;2023-06-10T05:28:06;12.07;;;5.68;;
59970;SDS011;45825;45.434;9.116;2023-06-10T05:30:34;9.73;;;5.53;;
59970;SDS011;45825;45.434;9.116;2023-06-10T05:33:00;8.80;;;5.38;;
59970;SDS011;45825;45.434;9.116;2023-06-10T05:35:25;9.93;;;5.43;;
59970;SDS011;45825;45.434;9.116;2023-06-10T05:37:51;12.80;;;5.57;;
59970;SDS011;45825;45.434;9.116;2023-06-10T05:40:16;9.75;;;5.43;;
59970;SDS011;45825;45.434;9.116;2023-06-10T05:42:41;11.82;;;5.60;;
59970;SDS011;45825;45.434;9.116;2023-06-10T05:45:07;10.90;;;5.70;;
59970;SDS011;45825;45.434;9.116;2023-06-10T05:47:32;8.20;;;5.13;;
59970;SDS011;45825;45.434;9.116;2023-06-10T05:49:58;11.43;;;5.20;;
59970;SDS011;45825;45.434;9.116;2023-06-10T05:52:23;12.68;;;5.15;;
59970;SDS011;45825;45.434;9.116;2023-06-10T05:54:49;9.43;;;4.78;;
59970;SDS011;45825;45.434;9.116;2023-06-10T05:57:15;9.25;;;4.72;;
59970;SDS011;45825;45.434;9.116;2023-06-10T05:59:40;10.57;;;4.97;;
59970;SDS011;45825;45.434;9.116;2023-06-10T06:02:05;10.00;;;5.15;;
59970;SDS011;45825;45.434;9.116;2023-06-10T06:04:31;11.82;;;5.22;;
59970;SDS011;45825;45.434;9.116;2023-06-10T06:06:57;11.40;;;5.70;;
59970;SDS011;45825;45.434;9.116;2023-06-10T06:09:22;11.65;;;6.00;;
59970;SDS011;45825;45.434;9.116;2023-06-10T06:11:47;13.93;;;6.25;;
59970;SDS011;45825;45.434;9.116;2023-06-10T06:14:13;13.07;;;6.10;;
59970;SDS011;45825;45.434;9.116;2023-06-10T06:16:39;11.55;;;5.85;;
59970;SDS011;45825;45.434;9.116;2023-06-10T06:19:05;10.88;;;5.72;;
59970;SDS011;45825;45.434;9.116;2023-06-10T06:21:30;10.07;;;5.70;;
59970;SDS011;45825;45.434;9.116;2023-06-10T06:23:55;10.50;;;5.25;;
59970;SDS011;45825;45.434;9.116;2023-06-10T06:26:20;10.32;;;5.38;;
59970;SDS011;45825;45.434;9.116;2023-06-10T06:28:46;10.77;;;5.50;;
59970;SDS011;45825;45.434;9.116;2023-06-10T06:31:11;10.05;;;5.15;;
59970;SDS011;45825;45.434;9.116;2023-06-10T06:33:37;9.40;;;5.15;;
59970;SDS011;45825;45.434;9.116;2023-06-10T06:36:02;9.57;;;5.20;;
59970;SDS011;45825;45.434;9.116;2023-06-10T06:38:27;10.32;;;4.97;;
59970;SDS011;45825;45.434;9.116;2023-06-10T06:40:53;9.65;;;4.90;;
59970;SDS011;45825;45.434;9.116;2023-06-10T06:43:19;9.77;;;4.82;;
59970;SDS011;45825;45.434;9.116;2023-06-10T06:45:44;10.45;;;5.50;;
59970;SDS011;45825;45.434;9.116;2023-06-10T06:48:12;8.40;;;5.38;;
59970;SDS011;45825;45.434;9.116;2023-06-10T06:50:38;9.82;;;5.40;;
59970;SDS011;45825;45.434;9.116;2023-06-10T06:53:03;11.20;;;5.70;;
59970;SDS011;45825;45.434;9.116;2023-06-10T06:55:29;10.65;;;5.50;;
59970;SDS011;45825;45.434;9.116;2023-06-10T06:57:54;10.90;;;5.90;;
59970;SDS011;45825;45.434;9.116;2023-06-10T07:00:20;10.15;;;5.65;;
59970;SDS011;45825;45.434;9.116;2023-06-10T07:02:46;11.65;;;4.70;;
59970;SDS011;45825;45.434;9.116;2023-06-10T07:05:11;9.63;;;4.78;;
59970;SDS011;45825;45.434;9.116;2023-06-10T07:07:36;8.90;;;4.78;;
59970;SDS011;45825;45.434;9.116;2023-06-10T07:10:01;10.43;;;5.18;;
59970;SDS011;45825;45.434;9.116;2023-06-10T07:12:27;8.90;;;4.50;;
59970;SDS011;45825;45.434;9.116;2023-06-10T07:14:52;10.18;;;4.22;;
59970;SDS011;45825;45.434;9.116;2023-06-10T07:17:17;10.80;;;4.80;;
59970;SDS011;45825;45.434;9.116;2023-06-10T07:19:43;8.57;;;4.32;;
59970;SDS011;45825;45.434;9.116;2023-06-10T07:22:09;12.40;;;4.60;;
59970;SDS011;45825;45.434;9.116;2023-06-10T07:24:35;12.07;;;4.80;;
59970;SDS011;45825;45.434;9.116;2023-06-10T07:27:00;9.90;;;4.90;;
59970;SDS011;45825;45.434;9.116;2023-06-10T07:29:25;11.15;;;4.78;;
59970;SDS011;45825;45.434;9.116;2023-06-10T07:31:50;10.13;;;5.20;;
59970;SDS011;45825;45.434;9.116;2023-06-10T07:34:16;12.32;;;5.25;;
59970;SDS011;45825;45.434;9.116;2023-06-10T07:36:41;8.02;;;4.15;;
59970;SDS011;45825;45.434;9.116;2023-06-10T07:39:06;10.10;;;4.47;;
59970;SDS011;45825;45.434;9.116;2023-06-10T07:41:32;14.57;;;4.82;;
59970;SDS011;45825;45.434;9.116;2023-06-10T07:43:58;10.90;;;4.15;;
59970;SDS011;45825;45.434;9.116;2023-06-10T07:46:23;8.07;;;4.22;;
59970;SDS011;45825;45.434;9.116;2023-06-10T07:48:49;10.43;;;4.50;;
59970;SDS011;45825;45.434;9.116;2023-06-10T07:51:15;10.77;;;4.97;;
59970;SDS011;45825;45.434;9.116;2023-06-10T07:53:41;9.68;;;5.22;;
59970;SDS011;45825;45.434;9.116;2023-06-10T07:56:07;11.25;;;5.97;;
59970;SDS011;45825;45.434;9.116;2023-06-10T07:58:32;10.57;;;5.63;;
59970;SDS011;45825;45.434;9.116;2023-06-10T08:00:57;12.70;;;6.65;;
59970;SDS011;45825;45.434;9.116;2023-06-10T08:03:22;13.27;;;6.75;;
59970;SDS011;45825;45.434;9.116;2023-06-10T08:05:48;12.00;;;7.07;;
59970;SDS011;45825;45.434;9.116;2023-06-10T08:08:13;10.32;;;7.35;;
59970;SDS011;45825;45.434;9.116;2023-06-10T08:10:38;11.82;;;6.97;;
59970;SDS011;45825;45.434;9.116;2023-06-10T08:13:04;10.75;;;7.22;;
59970;SDS011;45825;45.434;9.116;2023-06-10T08:15:29;11.27;;;6.80;;
59970;SDS011;45825;45.434;9.116;2023-06-10T08:17:55;10.85;;;7.00;;
59970;SDS011;45825;45.434;9.116;2023-06-10T08:20:21;10.05;;;7.18;;
59970;SDS011;45825;45.434;9.116;2023-06-10T08:22:46;14.30;;;7.32;;
59970;SDS011;45825;45.434;9.116;2023-06-10T08:25:11;22.23;;;7.30;;
59970;SDS011;45825;45.434;9.116;2023-06-10T08:27:37;63.90;;;12.32;;
59970;SDS011;45825;45.434;9.116;2023-06-10T08:30:02;13.88;;;6.97;;
59970;SDS011;45825;45.434;9.116;2023-06-10T08:32:28;9.07;;;5.60;;
59970;SDS011;45825;45.434;9.116;2023-06-10T08:34:53;8.68;;;5.00;;
59970;SDS011;45825;45.434;9.116;2023-06-10T08:37:18;11.20;;;4.90;;
59970;SDS011;45825;45.434;9.116;2023-06-10T08:39:44;9.55;;;4.85;;
59970;SDS011;45825;45.434;9.116;2023-06-10T08:44:47;12.52;;;5.88;;
59970;SDS011;45825;45.434;9.116;2023-06-10T08:47:14;11.27;;;6.50;;
59970;SDS011;45825;45.434;9.116;2023-06-10T08:49:44;10.65;;;6.63;;
59970;SDS011;45825;45.434;9.116;2023-06-10T08:52:15;13.15;;;7.22;;
59970;SDS011;45825;45.434;9.116;2023-06-10T08:57:22;11.27;;;6.72;;
59970;SDS011;45825;45.434;9.116;2023-06-10T08:59:48;12.90;;;7.25;;
59970;SDS011;45825;45.434;9.116;2023-06-10T09:02:14;10.35;;;6.22;;
59970;SDS011;45825;45.434;9.116;2023-06-10T09:04:43;13.07;;;6.22;;
59970;SDS011;45825;45.434;9.116;2023-06-10T09:07:10;10.55;;;6.38;;
59970;SDS011;45825;45.434;9.116;2023-06-10T09:09:36;10.38;;;6.47;;
59970;SDS011;45825;45.434;9.116;2023-06-10T09:12:01;10.55;;;6.30;;
59970;SDS011;45825;45.434;9.116;2023-06-10T09:14:27;11.18;;;6.07;;
59970;SDS011;45825;45.434;9.116;2023-06-10T09:16:52;10.60;;;5.97;;
59970;SDS011;45825;45.434;9.116;2023-06-10T09:19:21;11.23;;;6.38;;
59970;SDS011;45825;45.434;9.116;2023-06-10T09:21:48;10.23;;;6.45;;
59970;SDS011;45825;45.434;9.116;2023-06-10T09:24:13;10.65;;;6.10;;
59970;SDS011;45825;45.434;9.116;2023-06-10T09:26:39;11.70;;;5.30;;
59970;SDS011;45825;45.434;9.116;2023-06-10T09:29:07;11.13;;;5.40;;
59970;SDS011;45825;45.434;9.116;2023-06-10T09:31:34;8.95;;;5.63;;
59970;SDS011;45825;45.434;9.116;2023-06-10T09:34:13;9.38;;;5.85;;
59970;SDS011;45825;45.434;9.116;2023-06-10T09:36:40;12.70;;;5.55;;
59970;SDS011;45825;45.434;9.116;2023-06-10T09:39:13;10.70;;;6.13;;
59970;SDS011;45825;45.434;9.116;2023-06-10T09:41:41;9.82;;;5.82;;
59970;SDS011;45825;45.434;9.116;2023-06-10T09:44:17;14.30;;;7.10;;
59970;SDS011;45825;45.434;9.116;2023-06-10T09:46:45;13.20;;;7.18;;
59970;SDS011;45825;45.434;9.116;2023-06-10T09:49:12;9.65;;;6.25;;
59970;SDS011;45825;45.434;9.116;2023-06-10T09:51:37;11.55;;;6.57;;
59970;SDS011;45825;45.434;9.116;2023-06-10T09:54:03;12.30;;;6.60;;
59970;SDS011;45825;45.434;9.116;2023-06-10T09:56:32;9.18;;;6.47;;
59970;SDS011;45825;45.434;9.116;2023-06-10T09:59:01;11.93;;;6.38;;
59970;SDS011;45825;45.434;9.116;2023-06-10T10:01:27;11.73;;;5.97;;
59970;SDS011;45825;45.434;9.116;2023-06-10T10:03:52;12.73;;;6.13;;
59970;SDS011;45825;45.434;9.116;2023-06-10T10:06:19;10.05;;;6.05;;
59970;SDS011;45825;45.434;9.116;2023-06-10T10:08:46;12.85;;;6.60;;
59970;SDS011;45825;45.434;9.116;2023-06-10T10:11:14;13.73;;;6.75;;
59970;SDS011;45825;45.434;9.116;2023-06-10T10:13:41;11.40;;;6.93;;
59970;SDS011;45825;45.434;9.116;2023-06-10T10:16:11;11.70;;;7.35;;
59970;SDS011;45825;45.434;9.116;2023-06-10T10:18:41;10.68;;;6.28;;
59970;SDS011;45825;45.434;9.116;2023-06-10T10:21:11;10.32;;;5.93;;
59970;SDS011;45825;45.434;9.116;2023-06-10T10:23:40;11.40;;;6.43;;
59970;SDS011;45825;45.434;9.116;2023-06-10T10:26:13;11.10;;;5.63;;
59970;SDS011;45825;45.434;9.116;2023-06-10T10:28:45;12.25;;;5.82;;
59970;SDS011;45825;45.434;9.116;2023-06-10T10:31:13;14.23;;;5.70;;
59970;SDS011;45825;45.434;9.116;2023-06-10T10:36:18;10.55;;;4.32;;
59970;SDS011;45825;45.434;9.116;2023-06-10T10:38:44;8.40;;;3.95;;
59970;SDS011;45825;45.434;9.116;2023-06-10T10:41:12;8.02;;;3.80;;
59970;SDS011;45825;45.434;9.116;2023-06-10T10:43:39;8.40;;;3.50;;
59970;SDS011;45825;45.434;9.116;2023-06-10T10:46:08;8.85;;;3.15;;
59970;SDS011;45825;45.434;9.116;2023-06-10T10:48:38;7.63;;;3.60;;
59970;SDS011;45825;45.434;9.116;2023-06-10T10:51:04;8.43;;;3.85;;
59970;SDS011;45825;45.434;9.116;2023-06-10T10:53:29;8.32;;;3.40;;
59970;SDS011;45825;45.434;9.116;2023-06-10T10:56:09;9.77;;;3.40;;
59970;SDS011;45825;45.434;9.116;2023-06-10T10:58:40;7.95;;;3.67;;
59970;SDS011;45825;45.434;9.116;2023-06-10T11:01:12;9.20;;;3.50;;
59970;SDS011;45825;45.434;9.116;2023-06-10T11:03:43;6.82;;;3.05;;
59970;SDS011;45825;45.434;9.116;2023-06-10T11:06:17;8.18;;;3.10;;
59970;SDS011;45825;45.434;9.116;2023-06-10T11:16:27;7.15;;;3.25;;
59970;SDS011;45825;45.434;9.116;2023-06-10T11:18:53;6.72;;;3.10;;
59970;SDS011;45825;45.434;9.116;2023-06-10T11:21:19;8.23;;;3.15;;
59970;SDS011;45825;45.434;9.116;2023-06-10T11:23:45;7.43;;;3.38;;
59970;SDS011;45825;45.434;9.116;2023-06-10T11:26:14;8.35;;;3.10;;
59970;SDS011;45825;45.434;9.116;2023-06-10T11:33:54;7.75;;;3.13;;
59970;SDS011;45825;45.434;9.116;2023-06-10T11:36:23;6.95;;;3.15;;
59970;SDS011;45825;45.434;9.116;2023-06-10T11:38:50;6.60;;;3.10;;
59970;SDS011;45825;45.434;9.116;2023-06-10T11:41:20;9.23;;;3.00;;
59970;SDS011;45825;45.434;9.116;2023-06-10T11:43:46;6.63;;;2.92;;
59970;SDS011;45825;45.434;9.116;2023-06-10T11:46:12;7.30;;;2.65;;
59970;SDS011;45825;45.434;9.116;2023-06-10T11:48:38;5.68;;;2.72;;
59970;SDS011;45825;45.434;9.116;2023-06-10T11:51:06;7.13;;;2.83;;
59970;SDS011;45825;45.434;9.116;2023-06-10T11:53:32;6.72;;;3.10;;
59970;SDS011;45825;45.434;9.116;2023-06-10T11:55:58;5.60;;;2.90;;
59970;SDS011;45825;45.434;9.116;2023-06-10T11:58:24;6.50;;;2.90;;
59970;SDS011;45825;45.434;9.116;2023-06-10T12:00:50;6.90;;;3.03;;
59970;SDS011;45825;45.434;9.116;2023-06-10T12:03:18;5.72;;;3.00;;
59970;SDS011;45825;45.434;9.116;2023-06-10T12:06:01;9.02;;;2.85;;
59970;SDS011;45825;45.434;9.116;2023-06-10T12:08:28;9.15;;;3.63;;
59970;SDS011;45825;45.434;9.116;2023-06-10T12:10:54;8.10;;;3.50;;
59970;SDS011;45825;45.434;9.116;2023-06-10T12:13:20;8.25;;;3.85;;
59970;SDS011;45825;45.434;9.116;2023-06-10T12:15:46;7.60;;;3.60;;
59970;SDS011;45825;45.434;9.116;2023-06-10T12:18:15;7.43;;;3.13;;
59970;SDS011;45825;45.434;9.116;2023-06-10T12:20:44;8.00;;;3.88;;
59970;SDS011;45825;45.434;9.116;2023-06-10T12:23:10;10.45;;;3.88;;
59970;SDS011;45825;45.434;9.116;2023-06-10T12:25:36;8.70;;;4.25;;
59970;SDS011;45825;45.434;9.116;2023-06-10T12:28:03;12.25;;;7.38;;
59970;SDS011;45825;45.434;9.116;2023-06-10T12:30:28;10.00;;;7.22;;
59970;SDS011;45825;45.434;9.116;2023-06-10T12:32:54;8.90;;;6.80;;
59970;SDS011;45825;45.434;9.116;2023-06-10T12:35:21;9.52;;;6.55;;
59970;SDS011;45825;45.434;9.116;2023-06-10T12:37:54;12.10;;;7.65;;
59970;SDS011;45825;45.434;9.116;2023-06-10T12:42:53;11.18;;;7.40;;
59970;SDS011;45825;45.434;9.116;2023-06-10T12:45:30;11.38;;;7.45;;
59970;SDS011;45825;45.434;9.116;2023-06-10T12:48:06;10.68;;;6.70;;
59970;SDS011;45825;45.434;9.116;2023-06-10T12:50:34;8.38;;;5.93;;
59970;SDS011;45825;45.434;9.116;2023-06-10T12:53:00;10.38;;;5.97;;
59970;SDS011;45825;45.434;9.116;2023-06-10T12:55:26;10.70;;;7.22;;
59970;SDS011;45825;45.434;9.116;2023-06-10T12:57:53;9.48;;;6.28;;
59970;SDS011;45825;45.434;9.116;2023-06-10T13:00:18;10.80;;;6.63;;
59970;SDS011;45825;45.434;9.116;2023-06-10T13:02:44;10.60;;;6.60;;
59970;SDS011;45825;45.434;9.116;2023-06-10T13:05:09;9.02;;;6.38;;
59970;SDS011;45825;45.434;9.116;2023-06-10T13:07:35;9.73;;;6.20;;
59970;SDS011;45825;45.434;9.116;2023-06-10T13:10:00;9.63;;;6.10;;
59970;SDS011;45825;45.434;9.116;2023-06-10T13:12:26;9.75;;;5.55;;
59970;SDS011;45825;45.434;9.116;2023-06-10T13:14:55;11.25;;;5.18;;
59970;SDS011;45825;45.434;9.116;2023-06-10T13:17:21;7.45;;;4.97;;
59970;SDS011;45825;45.434;9.116;2023-06-10T13:19:46;8.00;;;5.72;;
59970;SDS011;45825;45.434;9.116;2023-06-10T13:22:11;12.13;;;5.40;;
59970;SDS011;45825;45.434;9.116;2023-06-10T13:24:38;7.50;;;4.60;;
59970;SDS011;45825;45.434;9.116;2023-06-10T13:27:05;10.00;;;5.22;;
59970;SDS011;45825;45.434;9.116;2023-06-10T13:29:31;8.60;;;4.78;;
59970;SDS011;45825;45.434;9.116;2023-06-10T13:31:57;8.45;;;4.15;;
59970;SDS011;45825;45.434;9.116;2023-06-10T13:34:22;6.90;;;4.65;;
59970;SDS011;45825;45.434;9.116;2023-06-10T13:36:47;8.82;;;4.60;;
59970;SDS011;45825;45.434;9.116;2023-06-10T13:39:13;8.25;;;5.57;;
59970;SDS011;45825;45.434;9.116;2023-06-10T13:41:39;12.10;;;9.13;;
59970;SDS011;45825;45.434;9.116;2023-06-10T13:44:06;11.70;;;8.98;;
59970;SDS011;45825;45.434;9.116;2023-06-10T13:46:31;11.23;;;8.45;;
59970;SDS011;45825;45.434;9.116;2023-06-10T13:48:56;10.75;;;6.15;;
59970;SDS011;45825;45.434;9.116;2023-06-10T13:51:22;10.60;;;6.88;;
59970;SDS011;45825;45.434;9.116;2023-06-10T13:53:47;11.43;;;7.78;;
59970;SDS011;45825;45.434;9.116;2023-06-10T14:10:07;10.80;;;7.28;;
59970;SDS011;45825;45.434;9.116;2023-06-10T14:12:33;13.20;;;7.22;;
59970;SDS011;45825;45.434;9.116;2023-06-10T14:14:59;9.90;;;6.90;;
59970;SDS011;45825;45.434;9.116;2023-06-10T14:17:24;14.15;;;7.30;;
59970;SDS011;45825;45.434;9.116;2023-06-10T14:19:49;10.90;;;7.10;;
59970;SDS011;45825;45.434;9.116;2023-06-10T14:22:15;11.73;;;7.20;;
59970;SDS011;45825;45.434;9.116;2023-06-10T14:24:40;10.43;;;8.15;;
59970;SDS011;45825;45.434;9.116;2023-06-10T14:27:05;9.27;;;6.25;;
59970;SDS011;45825;45.434;9.116;2023-06-10T14:29:31;12.60;;;7.00;;
59970;SDS011;45825;45.434;9.116;2023-06-10T14:31:58;9.63;;;5.95;;
59970;SDS011;45825;45.434;9.116;2023-06-10T14:34:24;10.23;;;5.88;;
59970;SDS011;45825;45.434;9.116;2023-06-10T14:36:53;11.45;;;5.35;;
59970;SDS011;45825;45.434;9.116;2023-06-10T14:39:19;9.40;;;5.22;;
59970;SDS011;45825;45.434;9.116;2023-06-10T14:41:44;10.38;;;6.25;;
59970;SDS011;45825;45.434;9.116;2023-06-10T14:44:09;8.90;;;5.37;;
59970;SDS011;45825;45.434;9.116;2023-06-10T14:46:34;7.63;;;4.88;;
59970;SDS011;45825;45.434;9.116;2023-06-10T14:49:00;11.90;;;5.00;;
59970;SDS011;45825;45.434;9.116;2023-06-10T14:51:27;9.25;;;5.47;;
59970;SDS011;45825;45.434;9.116;2023-06-10T14:53:52;8.07;;;5.03;;
59970;SDS011;45825;45.434;9.116;2023-06-10T14:56:17;9.13;;;5.23;;
59970;SDS011;45825;45.434;9.116;2023-06-10T14:58:43;7.95;;;5.43;;
59970;SDS011;45825;45.434;9.116;2023-06-10T15:01:08;7.80;;;4.55;;
59970;SDS011;45825;45.434;9.116;2023-06-10T15:03:33;9.77;;;4.90;;
59970;SDS011;45825;45.434;9.116;2023-06-10T15:05:59;9.85;;;5.05;;
59970;SDS011;45825;45.434;9.116;2023-06-10T15:08:25;8.63;;;4.70;;
59970;SDS011;45825;45.434;9.116;2023-06-10T15:10:52;9.35;;;4.43;;
59970;SDS011;45825;45.434;9.116;2023-06-10T15:13:18;8.57;;;4.50;;
59970;SDS011;45825;45.434;9.116;2023-06-10T15:15:43;9.10;;;4.43;;
59970;SDS011;45825;45.434;9.116;2023-06-10T15:18:08;8.13;;;4.33;;